To NAV CANADA Home Page Login to a new session Search on AWWS site Feedback and Comments Disclaimer Vers la page française équivalente Tips FAQ What's new on the site To the Forecasts and Observations / NOTAM section To "File a Flight Plan" website Publications and other links Update of the User's profile FIC Telephone Numbers My Weather Data Folder Route Weather Data Regional Weather Data Local Weather Data To the Forecasts and Observations / NOTAM section
Request Generated 05/04/2015 at 01:58:38 UTC . Weather information available at that time is displayed.

METAR/TAF

ARVIAT/NU    

SPECI CYEK 040142Z AUTO 30013KT 9SM -SN OVC020 M08/M10 A2984 RMK
SLP107=
SPECI CYEK 040141Z AUTO 30014KT 9SM OVC020 M08/M10 A2984 RMK SLP107=
SPECI CYEK 040131Z AUTO 30014G20KT 9SM -SN OVC018 M08/M10 A2984 RMK
SLP107=
METAR CYEK 040100Z AUTO 30017KT 9SM OVC018 M07/M10 A2984 RMK SLP106=
METAR CYEK 040000Z AUTO 31020G25KT 9SM OVC016 M06/M09 A2984 RMK
SLP104=
METAR CYEK 032300Z AUTO 31020KT 9SM OVC016 M06/M08 A2983 RMK SLP103=

TAF CYEK 032339Z 0400/0412 32015KT P6SM OVC015 TEMPO 0400/0412 BKN025
RMK NXT FCST BY 040600Z=
Your time UTC time
Weather data provided by Environment Canada and NAV CANADA